createdAt,value
2022-12-06T00:00:47.799Z,47.44
2022-12-06T00:03:15.202Z,47.53
2022-12-06T00:05:46.207Z,47.87
2022-12-06T00:10:57.710Z,47.66
2022-12-06T00:13:24.251Z,48.20
2022-12-06T00:15:51.567Z,47.31
2022-12-06T00:18:18.076Z,48.53
2022-12-06T00:20:44.614Z,48.03
2022-12-06T00:26:05.815Z,47.91
2022-12-06T00:28:34.210Z,47.66
2022-12-06T00:31:01.511Z,47.80
2022-12-06T00:33:28.814Z,47.83
2022-12-06T00:35:55.300Z,47.56
2022-12-06T00:41:17.484Z,48.17
2022-12-06T00:43:44.041Z,48.05
2022-12-06T00:46:11.361Z,48.29
2022-12-06T00:48:38.687Z,47.82
2022-12-06T00:51:05.186Z,47.88
2022-12-06T00:56:28.259Z,48.18
2022-12-06T00:58:54.843Z,47.83
2022-12-06T01:01:22.173Z,47.89
2022-12-06T01:03:49.527Z,47.83
2022-12-06T01:06:16.911Z,48.02
2022-12-06T01:11:29.317Z,47.71
2022-12-06T01:13:56.563Z,47.74
2022-12-06T01:16:23.108Z,48.30
2022-12-06T01:18:49.652Z,47.92
2022-12-06T01:21:16.954Z,48.23
2022-12-06T01:26:27.999Z,47.92
2022-12-06T01:28:55.235Z,48.13
2022-12-06T01:31:22.566Z,47.93
2022-12-06T01:33:49.062Z,48.05
2022-12-06T01:36:16.315Z,47.71
2022-12-06T01:41:38.451Z,48.08
2022-12-06T01:44:04.925Z,47.92
2022-12-06T01:46:31.408Z,47.97
2022-12-06T01:48:57.878Z,48.31
2022-12-06T01:51:25.121Z,48.59
2022-12-06T01:56:35.401Z,48.33
2022-12-06T01:59:01.878Z,48.38
2022-12-06T02:01:30.213Z,48.63
2022-12-06T02:03:56.658Z,47.92
2022-12-06T02:06:23.098Z,48.19
2022-12-06T02:08:49.506Z,48.16
2022-12-06T02:11:16.728Z,48.16
2022-12-06T02:13:43.289Z,48.26
2022-12-06T02:16:10.548Z,48.11
2022-12-06T02:18:36.930Z,48.05
2022-12-06T02:21:03.476Z,48.58
2022-12-06T02:23:29.862Z,48.88
2022-12-06T02:25:56.261Z,48.61
2022-12-06T02:28:23.565Z,48.04
2022-12-06T02:30:51.927Z,48.11
2022-12-06T02:33:19.164Z,48.17
2022-12-06T02:35:46.406Z,48.40
2022-12-06T02:38:13.329Z,48.23
2022-12-06T02:40:39.843Z,47.88
2022-12-06T02:43:07.124Z,48.37
2022-12-06T02:45:34.420Z,48.30
2022-12-06T02:48:00.874Z,48.08
2022-12-06T02:50:28.144Z,48.44
2022-12-06T02:52:55.390Z,48.40
2022-12-06T02:55:22.657Z,48.64
2022-12-06T02:57:49.882Z,48.13
2022-12-06T03:00:16.324Z,47.78
2022-12-06T03:02:43.610Z,48.05
2022-12-06T03:05:11.966Z,48.63
2022-12-06T03:07:39.262Z,48.23
2022-12-06T03:10:06.547Z,48.20
2022-12-06T03:12:33.084Z,48.92
2022-12-06T03:15:00.370Z,48.40
2022-12-06T03:17:28.714Z,48.57
2022-12-06T03:19:55.985Z,48.09
2022-12-06T03:22:23.245Z,48.33
2022-12-06T03:24:49.665Z,48.58
2022-12-06T03:30:01.937Z,48.99
2022-12-06T03:32:28.571Z,48.13
2022-12-06T03:34:56.898Z,48.35
2022-12-06T03:37:26.809Z,48.52
2022-12-06T03:39:54.101Z,48.50
2022-12-06T03:45:07.344Z,48.29
2022-12-06T03:47:35.663Z,48.31
2022-12-06T03:50:03.111Z,48.39
2022-12-06T03:52:29.643Z,48.72
2022-12-06T03:54:57.949Z,48.43
2022-12-06T04:00:10.521Z,48.52
2022-12-06T04:02:36.930Z,48.60
2022-12-06T04:05:03.449Z,48.44
2022-12-06T04:07:33.408Z,48.16
2022-12-06T04:09:59.920Z,48.68
2022-12-06T04:15:23.076Z,48.56
2022-12-06T04:17:51.426Z,48.71
2022-12-06T04:20:17.827Z,48.54
2022-12-06T04:22:46.118Z,48.41
2022-12-06T04:25:13.435Z,48.47
2022-12-06T04:30:26.779Z,48.40
2022-12-06T04:32:56.675Z,48.83
2022-12-06T04:35:23.147Z,48.69
2022-12-06T04:37:49.544Z,48.76
2022-12-06T04:40:16.774Z,48.96
2022-12-06T04:45:32.458Z,48.77
2022-12-06T04:48:00.758Z,48.53
2022-12-06T04:50:28.096Z,48.32
2022-12-06T04:52:54.548Z,48.86
2022-12-06T04:55:20.980Z,48.74
2022-12-06T05:00:43.685Z,48.78
2022-12-06T05:03:12.965Z,48.55
2022-12-06T05:05:39.433Z,48.64
2022-12-06T05:08:07.870Z,48.85
2022-12-06T05:10:37.068Z,48.54
2022-12-06T05:15:47.984Z,48.46
2022-12-06T05:18:14.422Z,48.43
2022-12-06T05:20:41.702Z,48.63
2022-12-06T05:23:08.939Z,48.45
2022-12-06T05:25:35.414Z,48.58
2022-12-06T05:30:56.358Z,48.29
2022-12-06T05:33:24.653Z,48.76
2022-12-06T05:35:52.944Z,48.75
2022-12-06T05:38:22.919Z,48.36
2022-12-06T05:40:52.844Z,48.75
2022-12-06T05:46:03.572Z,48.52
2022-12-06T05:48:31.890Z,49.04
2022-12-06T05:50:59.194Z,48.79
2022-12-06T05:53:25.644Z,49.35
2022-12-06T05:55:52.899Z,48.88
2022-12-06T06:01:16.025Z,48.85
2022-12-06T06:03:47.412Z,48.54
2022-12-06T06:06:14.053Z,48.50
2022-12-06T06:08:40.516Z,49.21
2022-12-06T06:11:07.040Z,48.65
2022-12-06T06:16:19.493Z,48.55
2022-12-06T06:18:45.966Z,48.29
2022-12-06T06:21:12.436Z,49.04
2022-12-06T06:23:38.902Z,48.83
2022-12-06T06:26:06.290Z,48.79
2022-12-06T06:31:26.813Z,48.80
2022-12-06T06:33:53.659Z,49.20
2022-12-06T06:36:21.257Z,48.86
2022-12-06T06:38:47.709Z,48.81
2022-12-06T06:41:15.394Z,49.41
2022-12-06T06:46:26.738Z,49.89
2022-12-06T06:48:53.288Z,49.72
2022-12-06T06:51:20.671Z,50.16
2022-12-06T06:53:47.350Z,50.31
2022-12-06T06:56:14.106Z,50.18
2022-12-06T07:01:26.000Z,50.17
2022-12-06T07:03:52.741Z,50.62
2022-12-06T07:06:19.396Z,50.42
2022-12-06T07:08:46.799Z,50.45
2022-12-06T07:11:13.234Z,50.48
2022-12-06T07:16:34.579Z,50.32
2022-12-06T07:19:06.293Z,49.98
2022-12-06T07:21:36.326Z,50.78
2022-12-06T07:24:02.805Z,50.33
2022-12-06T07:26:29.271Z,50.70
2022-12-06T07:31:49.395Z,50.42
2022-12-06T07:34:16.802Z,50.17
2022-12-06T07:36:43.250Z,50.25
2022-12-06T07:39:14.473Z,50.05
2022-12-06T07:41:42.441Z,50.06
2022-12-06T07:47:03.711Z,50.28
2022-12-06T07:49:31.082Z,50.56
2022-12-06T07:51:57.572Z,50.66
2022-12-06T07:54:24.826Z,51.07
2022-12-06T07:56:51.298Z,51.17
2022-12-06T08:02:01.566Z,51.71
2022-12-06T08:04:28.163Z,51.91
2022-12-06T08:06:54.649Z,52.39
2022-12-06T08:09:21.920Z,52.25
2022-12-06T08:11:49.247Z,52.40
2022-12-06T08:14:15.723Z,51.21
2022-12-06T08:16:42.191Z,50.69
2022-12-06T08:19:08.794Z,50.42
2022-12-06T08:21:36.189Z,50.42
2022-12-06T08:24:03.610Z,50.32
2022-12-06T08:26:30.141Z,50.52
2022-12-06T08:28:56.588Z,49.89
2022-12-06T08:31:23.109Z,49.80
2022-12-06T08:33:49.649Z,49.58
2022-12-06T08:36:16.106Z,49.73
2022-12-06T08:38:43.492Z,49.23
2022-12-06T08:41:10.866Z,49.11
2022-12-06T08:43:38.271Z,48.98
2022-12-06T08:46:05.738Z,49.46
2022-12-06T08:48:32.291Z,48.61
2022-12-06T08:50:59.709Z,49.23
2022-12-06T08:53:26.156Z,48.90
2022-12-06T08:55:56.113Z,48.48
2022-12-06T08:58:25.342Z,48.51
2022-12-06T09:00:51.829Z,48.38
2022-12-06T09:03:19.212Z,48.45
2022-12-06T09:05:46.693Z,48.13
2022-12-06T09:08:13.207Z,48.44
2022-12-06T09:10:39.757Z,48.62
2022-12-06T09:13:07.174Z,48.47
2022-12-06T09:15:33.693Z,49.06
2022-12-06T09:18:01.097Z,48.49
2022-12-06T09:20:27.525Z,49.10
2022-12-06T09:22:54.022Z,48.62
2022-12-06T09:25:21.369Z,48.88
2022-12-06T09:27:48.789Z,49.03
2022-12-06T09:30:16.137Z,48.64
2022-12-06T09:35:26.631Z,48.68
2022-12-06T09:37:53.080Z,48.20
2022-12-06T09:40:20.445Z,48.66
2022-12-06T09:42:47.832Z,48.60
2022-12-06T09:45:14.296Z,48.44
2022-12-06T09:50:35.759Z,48.29
2022-12-06T09:53:04.130Z,48.34
2022-12-06T09:55:30.926Z,48.12
2022-12-06T09:57:57.442Z,48.23
2022-12-06T10:00:24.850Z,48.07
2022-12-06T10:05:35.990Z,48.11
2022-12-06T10:08:02.548Z,47.95
2022-12-06T10:10:29.096Z,48.14
2022-12-06T10:12:56.486Z,48.71
2022-12-06T10:15:22.996Z,48.19
2022-12-06T10:20:34.794Z,46.31
2022-12-06T10:23:01.242Z,45.83
2022-12-06T10:25:27.710Z,45.78
2022-12-06T10:27:54.221Z,45.66
2022-12-06T10:30:20.700Z,45.86
2022-12-06T10:35:42.080Z,46.65
2022-12-06T10:38:08.585Z,46.99
2022-12-06T10:40:35.046Z,46.88
2022-12-06T10:43:02.507Z,47.11
2022-12-06T10:45:29.025Z,46.81
2022-12-06T10:50:51.114Z,47.06
2022-12-06T10:53:18.570Z,47.20
2022-12-06T10:55:45.039Z,47.53
2022-12-06T10:58:11.520Z,48.10
2022-12-06T11:00:38.138Z,48.39
2022-12-06T11:05:49.511Z,48.65
2022-12-06T11:08:17.005Z,48.55
2022-12-06T11:10:43.569Z,48.42
2022-12-06T11:13:10.018Z,48.41
2022-12-06T11:15:37.453Z,48.40
2022-12-06T11:20:50.627Z,48.24
2022-12-06T11:23:18.031Z,48.23
2022-12-06T11:25:44.566Z,48.43
2022-12-06T11:28:11.972Z,48.24
2022-12-06T11:30:38.454Z,48.29
2022-12-06T11:35:58.817Z,48.17
2022-12-06T11:38:26.218Z,48.63
2022-12-06T11:40:52.671Z,48.53
2022-12-06T11:43:19.164Z,48.93
2022-12-06T11:45:45.628Z,48.88
2022-12-06T11:51:07.153Z,49.24
2022-12-06T11:53:33.646Z,49.45
2022-12-06T11:56:01.118Z,49.64
2022-12-06T11:58:28.605Z,49.58
2022-12-06T12:00:56.037Z,49.56
2022-12-06T12:03:22.558Z,49.32
2022-12-06T12:05:49.082Z,49.71
2022-12-06T12:08:16.581Z,49.82
2022-12-06T12:10:44.142Z,50.11
2022-12-06T12:13:11.580Z,50.03
2022-12-06T12:15:38.073Z,49.94
2022-12-06T12:18:04.550Z,50.19
2022-12-06T12:20:32.322Z,49.91
2022-12-06T12:22:59.724Z,50.13
2022-12-06T12:25:26.591Z,49.92
2022-12-06T12:27:53.406Z,49.68
2022-12-06T12:30:19.875Z,49.33
2022-12-06T12:32:46.363Z,49.32
2022-12-06T12:35:13.751Z,49.32
2022-12-06T12:37:41.186Z,49.37
2022-12-06T12:40:10.790Z,49.47
2022-12-06T12:42:37.415Z,49.42
2022-12-06T12:45:04.804Z,49.26
2022-12-06T12:47:32.196Z,48.72
2022-12-06T12:49:58.713Z,48.93
2022-12-06T12:52:25.233Z,48.96
2022-12-06T12:54:51.773Z,49.06
2022-12-06T12:57:19.169Z,49.38
2022-12-06T12:59:45.652Z,49.28
2022-12-06T13:02:13.207Z,49.13
2022-12-06T19:39:03.285Z,51.81
2022-12-06T19:41:29.785Z,51.80
2022-12-06T19:43:57.142Z,51.22
2022-12-06T19:46:24.478Z,51.91
2022-12-06T19:48:50.953Z,50.95
2022-12-06T19:51:17.387Z,51.93
2022-12-06T19:53:45.093Z,51.83
2022-12-06T19:56:12.648Z,51.42
2022-12-06T19:58:39.980Z,51.42
2022-12-06T20:01:06.522Z,51.70
2022-12-06T20:03:32.996Z,52.67
2022-12-06T20:06:00.302Z,51.92
2022-12-06T20:08:27.645Z,52.88
2022-12-06T20:10:56.271Z,51.94
2022-12-06T20:13:22.945Z,52.79
2022-12-06T20:15:49.588Z,52.27
2022-12-06T20:18:16.102Z,52.53
2022-12-06T20:20:43.601Z,52.22
2022-12-06T20:23:10.697Z,52.38
2022-12-06T20:25:38.401Z,52.03
2022-12-06T20:28:10.411Z,51.90
2022-12-06T20:30:40.733Z,52.50
2022-12-06T20:33:08.404Z,51.94
2022-12-06T20:35:34.912Z,52.23
2022-12-06T20:38:02.473Z,51.92
2022-12-06T20:40:31.720Z,52.15
2022-12-06T20:42:58.402Z,51.85
2022-12-06T20:45:25.926Z,51.43
2022-12-06T20:47:53.359Z,51.61
2022-12-06T20:50:20.097Z,51.63
2022-12-06T20:52:46.591Z,51.56
2022-12-06T20:55:14.158Z,51.53
2022-12-06T20:57:40.751Z,51.47
2022-12-06T21:00:07.988Z,51.85
2022-12-06T21:02:35.615Z,51.05
2022-12-06T21:05:02.137Z,51.92
2022-12-06T21:07:29.533Z,51.64
2022-12-06T21:09:57.020Z,51.98
2022-12-06T21:12:24.454Z,51.59
2022-12-06T21:14:51.877Z,51.95
2022-12-06T21:17:18.317Z,52.09
2022-12-06T21:19:45.684Z,52.01
2022-12-06T21:22:13.084Z,52.27
2022-12-06T21:24:39.584Z,51.85
2022-12-06T21:27:06.135Z,51.59
2022-12-06T21:29:33.504Z,51.67
2022-12-06T21:31:59.970Z,53.06
2022-12-06T21:34:26.445Z,51.88
2022-12-06T21:36:52.907Z,51.90
2022-12-06T21:39:20.248Z,52.27
2022-12-06T21:41:46.764Z,52.21
2022-12-06T21:44:13.291Z,52.05
2022-12-06T21:46:40.623Z,52.66
2022-12-06T21:49:07.098Z,52.15
